sensor_id;sensor_type;location;lat;lon;timestamp;P1;durP1;ratioP1;P2;durP2;ratioP2
22571;SDS011;11452;53.368;14.658;2023-04-16T00:04:18;9.87;;;7.90;;
22571;SDS011;11452;53.368;14.658;2023-04-16T00:09:24;11.73;;;8.40;;
22571;SDS011;11452;53.368;14.658;2023-04-16T00:14:30;8.80;;;7.90;;
22571;SDS011;11452;53.368;14.658;2023-04-16T00:19:35;10.87;;;8.20;;
22571;SDS011;11452;53.368;14.658;2023-04-16T00:24:42;7.93;;;7.13;;
22571;SDS011;11452;53.368;14.658;2023-04-16T00:29:47;9.83;;;7.73;;
22571;SDS011;11452;53.368;14.658;2023-04-16T00:34:53;9.27;;;8.10;;
22571;SDS011;11452;53.368;14.658;2023-04-16T00:39:58;9.73;;;8.70;;
22571;SDS011;11452;53.368;14.658;2023-04-16T00:45:05;9.97;;;8.03;;
22571;SDS011;11452;53.368;14.658;2023-04-16T00:50:11;9.90;;;7.93;;
22571;SDS011;11452;53.368;14.658;2023-04-16T00:55:17;8.73;;;7.83;;
22571;SDS011;11452;53.368;14.658;2023-04-16T01:00:24;9.37;;;7.67;;
22571;SDS011;11452;53.368;14.658;2023-04-16T01:05:30;9.87;;;8.07;;
22571;SDS011;11452;53.368;14.658;2023-04-16T01:10:36;10.70;;;8.37;;
22571;SDS011;11452;53.368;14.658;2023-04-16T01:15:41;10.80;;;8.47;;
22571;SDS011;11452;53.368;14.658;2023-04-16T01:20:47;9.27;;;8.37;;
22571;SDS011;11452;53.368;14.658;2023-04-16T01:25:54;9.97;;;8.97;;
22571;SDS011;11452;53.368;14.658;2023-04-16T01:31:00;8.73;;;7.73;;
22571;SDS011;11452;53.368;14.658;2023-04-16T01:36:08;8.40;;;7.47;;
22571;SDS011;11452;53.368;14.658;2023-04-16T01:41:13;8.30;;;7.50;;
22571;SDS011;11452;53.368;14.658;2023-04-16T01:46:19;7.30;;;6.50;;
22571;SDS011;11452;53.368;14.658;2023-04-16T01:51:30;10.87;;;9.03;;
22571;SDS011;11452;53.368;14.658;2023-04-16T01:56:36;8.43;;;7.53;;
22571;SDS011;11452;53.368;14.658;2023-04-16T02:01:42;10.27;;;8.37;;
22571;SDS011;11452;53.368;14.658;2023-04-16T02:06:47;8.27;;;7.43;;
22571;SDS011;11452;53.368;14.658;2023-04-16T02:11:53;9.30;;;7.23;;
22571;SDS011;11452;53.368;14.658;2023-04-16T02:16:59;7.90;;;7.10;;
22571;SDS011;11452;53.368;14.658;2023-04-16T02:22:12;9.50;;;7.30;;
22571;SDS011;11452;53.368;14.658;2023-04-16T02:27:18;8.77;;;7.73;;
22571;SDS011;11452;53.368;14.658;2023-04-16T02:32:25;8.20;;;7.10;;
22571;SDS011;11452;53.368;14.658;2023-04-16T02:37:31;7.53;;;6.47;;
22571;SDS011;11452;53.368;14.658;2023-04-16T02:42:37;8.03;;;6.07;;
22571;SDS011;11452;53.368;14.658;2023-04-16T02:47:42;7.60;;;6.90;;
22571;SDS011;11452;53.368;14.658;2023-04-16T02:52:48;7.33;;;6.37;;
22571;SDS011;11452;53.368;14.658;2023-04-16T02:57:54;8.07;;;6.67;;
22571;SDS011;11452;53.368;14.658;2023-04-16T03:02:59;7.67;;;6.97;;
22571;SDS011;11452;53.368;14.658;2023-04-16T03:08:05;8.73;;;7.67;;
22571;SDS011;11452;53.368;14.658;2023-04-16T03:13:11;8.10;;;6.93;;
22571;SDS011;11452;53.368;14.658;2023-04-16T03:18:18;8.23;;;7.43;;
22571;SDS011;11452;53.368;14.658;2023-04-16T03:23:25;8.37;;;7.47;;
22571;SDS011;11452;53.368;14.658;2023-04-16T03:28:31;7.83;;;6.60;;
22571;SDS011;11452;53.368;14.658;2023-04-16T03:33:36;8.43;;;6.73;;
22571;SDS011;11452;53.368;14.658;2023-04-16T03:38:42;7.90;;;7.07;;
22571;SDS011;11452;53.368;14.658;2023-04-16T03:43:49;6.87;;;6.27;;
22571;SDS011;11452;53.368;14.658;2023-04-16T03:48:54;7.30;;;6.60;;
22571;SDS011;11452;53.368;14.658;2023-04-16T03:54:00;17.07;;;13.93;;
22571;SDS011;11452;53.368;14.658;2023-04-16T03:59:07;7.87;;;7.07;;
22571;SDS011;11452;53.368;14.658;2023-04-16T04:04:13;7.90;;;6.77;;
22571;SDS011;11452;53.368;14.658;2023-04-16T04:09:19;7.10;;;6.40;;
22571;SDS011;11452;53.368;14.658;2023-04-16T04:14:25;7.47;;;5.80;;
22571;SDS011;11452;53.368;14.658;2023-04-16T04:19:30;6.27;;;5.67;;
22571;SDS011;11452;53.368;14.658;2023-04-16T04:24:37;6.70;;;5.60;;
22571;SDS011;11452;53.368;14.658;2023-04-16T04:29:43;6.03;;;5.40;;
22571;SDS011;11452;53.368;14.658;2023-04-16T04:34:49;5.50;;;5.00;;
22571;SDS011;11452;53.368;14.658;2023-04-16T04:39:55;6.17;;;5.57;;
22571;SDS011;11452;53.368;14.658;2023-04-16T04:45:01;6.20;;;5.60;;
22571;SDS011;11452;53.368;14.658;2023-04-16T04:50:08;6.63;;;6.03;;
22571;SDS011;11452;53.368;14.658;2023-04-16T04:55:15;6.07;;;5.47;;
22571;SDS011;11452;53.368;14.658;2023-04-16T05:00:21;8.03;;;5.80;;
22571;SDS011;11452;53.368;14.658;2023-04-16T05:05:28;6.40;;;5.80;;
22571;SDS011;11452;53.368;14.658;2023-04-16T05:10:33;6.53;;;5.93;;
22571;SDS011;11452;53.368;14.658;2023-04-16T05:15:39;6.93;;;6.23;;
22571;SDS011;11452;53.368;14.658;2023-04-16T05:20:45;7.37;;;6.27;;
22571;SDS011;11452;53.368;14.658;2023-04-16T05:25:50;6.80;;;6.20;;
22571;SDS011;11452;53.368;14.658;2023-04-16T05:30:56;6.77;;;6.07;;
22571;SDS011;11452;53.368;14.658;2023-04-16T05:36:01;6.73;;;6.03;;
22571;SDS011;11452;53.368;14.658;2023-04-16T05:41:07;8.43;;;6.80;;
22571;SDS011;11452;53.368;14.658;2023-04-16T05:46:13;7.33;;;6.63;;
22571;SDS011;11452;53.368;14.658;2023-04-16T05:51:18;8.43;;;7.00;;
22571;SDS011;11452;53.368;14.658;2023-04-16T05:56:25;7.30;;;6.40;;
22571;SDS011;11452;53.368;14.658;2023-04-16T06:01:31;8.10;;;7.30;;
22571;SDS011;11452;53.368;14.658;2023-04-16T06:06:37;7.20;;;6.50;;
22571;SDS011;11452;53.368;14.658;2023-04-16T06:11:43;6.90;;;6.20;;
22571;SDS011;11452;53.368;14.658;2023-04-16T06:16:48;8.47;;;6.83;;
22571;SDS011;11452;53.368;14.658;2023-04-16T06:21:54;7.40;;;6.70;;
22571;SDS011;11452;53.368;14.658;2023-04-16T06:27:00;6.20;;;5.60;;
22571;SDS011;11452;53.368;14.658;2023-04-16T06:32:06;7.77;;;6.47;;
22571;SDS011;11452;53.368;14.658;2023-04-16T06:37:11;6.60;;;5.90;;
22571;SDS011;11452;53.368;14.658;2023-04-16T06:42:17;6.87;;;6.17;;
22571;SDS011;11452;53.368;14.658;2023-04-16T06:47:23;7.43;;;6.03;;
22571;SDS011;11452;53.368;14.658;2023-04-16T06:52:29;7.17;;;6.43;;
22571;SDS011;11452;53.368;14.658;2023-04-16T06:57:35;7.17;;;6.17;;
22571;SDS011;11452;53.368;14.658;2023-04-16T07:02:41;6.70;;;6.10;;
22571;SDS011;11452;53.368;14.658;2023-04-16T07:07:47;6.73;;;5.77;;
22571;SDS011;11452;53.368;14.658;2023-04-16T07:12:54;6.07;;;5.27;;
22571;SDS011;11452;53.368;14.658;2023-04-16T07:18:00;5.50;;;5.00;;
22571;SDS011;11452;53.368;14.658;2023-04-16T07:23:05;4.97;;;4.50;;
22571;SDS011;11452;53.368;14.658;2023-04-16T07:28:11;5.57;;;4.37;;
22571;SDS011;11452;53.368;14.658;2023-04-16T07:33:18;5.70;;;4.67;;
22571;SDS011;11452;53.368;14.658;2023-04-16T07:38:23;5.07;;;4.57;;
22571;SDS011;11452;53.368;14.658;2023-04-16T07:43:29;4.63;;;4.23;;
22571;SDS011;11452;53.368;14.658;2023-04-16T07:48:35;4.60;;;4.20;;
22571;SDS011;11452;53.368;14.658;2023-04-16T07:53:40;5.67;;;5.07;;
22571;SDS011;11452;53.368;14.658;2023-04-16T07:58:53;5.33;;;4.50;;
22571;SDS011;11452;53.368;14.658;2023-04-16T08:03:58;5.07;;;3.93;;
22571;SDS011;11452;53.368;14.658;2023-04-16T08:09:04;4.93;;;4.43;;
22571;SDS011;11452;53.368;14.658;2023-04-16T08:14:10;4.07;;;3.77;;
22571;SDS011;11452;53.368;14.658;2023-04-16T08:19:16;4.43;;;4.00;;
22571;SDS011;11452;53.368;14.658;2023-04-16T08:24:21;5.30;;;3.80;;
22571;SDS011;11452;53.368;14.658;2023-04-16T08:29:27;4.40;;;3.60;;
22571;SDS011;11452;53.368;14.658;2023-04-16T14:49:06;4.27;;;3.60;;
22571;SDS011;11452;53.368;14.658;2023-04-16T14:54:14;4.10;;;3.70;;
22571;SDS011;11452;53.368;14.658;2023-04-16T14:59:20;3.77;;;3.40;;
22571;SDS011;11452;53.368;14.658;2023-04-16T15:04:25;4.47;;;3.97;;
22571;SDS011;11452;53.368;14.658;2023-04-16T15:09:32;5.63;;;5.00;;
22571;SDS011;11452;53.368;14.658;2023-04-16T15:14:38;6.27;;;5.00;;
22571;SDS011;11452;53.368;14.658;2023-04-16T15:19:43;11.37;;;7.03;;
22571;SDS011;11452;53.368;14.658;2023-04-16T15:24:50;7.67;;;6.93;;
22571;SDS011;11452;53.368;14.658;2023-04-16T15:29:58;9.30;;;8.27;;
22571;SDS011;11452;53.368;14.658;2023-04-16T15:35:04;8.33;;;7.00;;
22571;SDS011;11452;53.368;14.658;2023-04-16T15:40:12;10.93;;;7.97;;
22571;SDS011;11452;53.368;14.658;2023-04-16T15:45:18;9.37;;;7.60;;
22571;SDS011;11452;53.368;14.658;2023-04-16T15:56:30;8.87;;;7.57;;
22571;SDS011;11452;53.368;14.658;2023-04-16T16:01:35;9.43;;;7.90;;
22571;SDS011;11452;53.368;14.658;2023-04-16T16:06:42;10.20;;;7.90;;
22571;SDS011;11452;53.368;14.658;2023-04-16T16:17:49;10.43;;;8.00;;
22571;SDS011;11452;53.368;14.658;2023-04-16T16:22:56;11.50;;;8.93;;
22571;SDS011;11452;53.368;14.658;2023-04-16T16:28:01;10.37;;;9.00;;
22571;SDS011;11452;53.368;14.658;2023-04-16T16:33:09;10.60;;;9.50;;
22571;SDS011;11452;53.368;14.658;2023-04-16T16:38:16;11.77;;;10.57;;
22571;SDS011;11452;53.368;14.658;2023-04-16T16:43:24;15.20;;;10.77;;
22571;SDS011;11452;53.368;14.658;2023-04-16T16:48:29;14.30;;;9.93;;
22571;SDS011;11452;53.368;14.658;2023-04-16T16:53:35;11.43;;;10.13;;
22571;SDS011;11452;53.368;14.658;2023-04-16T16:58:41;10.97;;;9.67;;
22571;SDS011;11452;53.368;14.658;2023-04-16T17:03:46;12.80;;;10.50;;
22571;SDS011;11452;53.368;14.658;2023-04-16T17:08:52;14.87;;;10.27;;
22571;SDS011;11452;53.368;14.658;2023-04-16T17:13:57;10.10;;;9.03;;
22571;SDS011;11452;53.368;14.658;2023-04-16T17:19:03;11.80;;;9.67;;
22571;SDS011;11452;53.368;14.658;2023-04-16T17:24:08;10.10;;;9.10;;
22571;SDS011;11452;53.368;14.658;2023-04-16T17:29:14;12.93;;;10.43;;
22571;SDS011;11452;53.368;14.658;2023-04-16T17:34:20;12.30;;;10.60;;
22571;SDS011;11452;53.368;14.658;2023-04-16T17:39:26;10.27;;;9.03;;
22571;SDS011;11452;53.368;14.658;2023-04-16T17:44:32;10.60;;;9.47;;
22571;SDS011;11452;53.368;14.658;2023-04-16T17:49:37;13.37;;;9.97;;
22571;SDS011;11452;53.368;14.658;2023-04-16T17:54:43;10.50;;;9.40;;
22571;SDS011;11452;53.368;14.658;2023-04-16T17:59:48;13.77;;;10.07;;
22571;SDS011;11452;53.368;14.658;2023-04-16T18:04:54;11.53;;;9.23;;
22571;SDS011;11452;53.368;14.658;2023-04-16T18:09:59;11.13;;;9.73;;
22571;SDS011;11452;53.368;14.658;2023-04-16T18:15:05;11.13;;;9.20;;
22571;SDS011;11452;53.368;14.658;2023-04-16T18:20:11;9.83;;;8.80;;
22571;SDS011;11452;53.368;14.658;2023-04-16T18:25:18;12.20;;;10.03;;
22571;SDS011;11452;53.368;14.658;2023-04-16T18:30:25;11.00;;;9.80;;
22571;SDS011;11452;53.368;14.658;2023-04-16T18:35:32;10.77;;;9.50;;
22571;SDS011;11452;53.368;14.658;2023-04-16T18:40:37;10.80;;;9.20;;
22571;SDS011;11452;53.368;14.658;2023-04-16T18:45:45;13.87;;;9.67;;
22571;SDS011;11452;53.368;14.658;2023-04-16T18:50:50;11.30;;;9.40;;
22571;SDS011;11452;53.368;14.658;2023-04-16T18:55:56;12.50;;;10.10;;
22571;SDS011;11452;53.368;14.658;2023-04-16T19:01:03;10.07;;;8.93;;
22571;SDS011;11452;53.368;14.658;2023-04-16T19:06:10;10.50;;;8.90;;
22571;SDS011;11452;53.368;14.658;2023-04-16T19:11:16;11.23;;;9.00;;
22571;SDS011;11452;53.368;14.658;2023-04-16T19:16:27;10.07;;;8.47;;
22571;SDS011;11452;53.368;14.658;2023-04-16T19:21:33;10.03;;;8.70;;
22571;SDS011;11452;53.368;14.658;2023-04-16T19:26:39;10.77;;;7.97;;
22571;SDS011;11452;53.368;14.658;2023-04-16T19:31:45;9.17;;;7.50;;
22571;SDS011;11452;53.368;14.658;2023-04-16T19:36:50;8.57;;;7.73;;
22571;SDS011;11452;53.368;14.658;2023-04-16T19:41:56;8.47;;;7.60;;
22571;SDS011;11452;53.368;14.658;2023-04-16T19:47:03;10.07;;;7.37;;
22571;SDS011;11452;53.368;14.658;2023-04-16T19:52:10;10.57;;;8.17;;
22571;SDS011;11452;53.368;14.658;2023-04-16T19:57:16;9.27;;;7.70;;
22571;SDS011;11452;53.368;14.658;2023-04-16T20:02:22;11.37;;;9.17;;
22571;SDS011;11452;53.368;14.658;2023-04-16T20:07:27;10.07;;;7.40;;
22571;SDS011;11452;53.368;14.658;2023-04-16T20:12:36;10.97;;;8.13;;
22571;SDS011;11452;53.368;14.658;2023-04-16T20:17:42;9.70;;;7.87;;
22571;SDS011;11452;53.368;14.658;2023-04-16T20:22:48;9.90;;;8.00;;
22571;SDS011;11452;53.368;14.658;2023-04-16T20:27:55;10.83;;;8.87;;
22571;SDS011;11452;53.368;14.658;2023-04-16T20:33:01;13.83;;;8.83;;
22571;SDS011;11452;53.368;14.658;2023-04-16T20:38:08;10.33;;;8.43;;
22571;SDS011;11452;53.368;14.658;2023-04-16T20:43:13;10.10;;;8.83;;
22571;SDS011;11452;53.368;14.658;2023-04-16T20:48:20;9.17;;;8.10;;
22571;SDS011;11452;53.368;14.658;2023-04-16T20:53:26;9.60;;;8.57;;
22571;SDS011;11452;53.368;14.658;2023-04-16T20:58:35;9.80;;;8.67;;
22571;SDS011;11452;53.368;14.658;2023-04-16T21:03:40;13.20;;;8.53;;
22571;SDS011;11452;53.368;14.658;2023-04-16T21:08:46;16.33;;;9.03;;
22571;SDS011;11452;53.368;14.658;2023-04-16T21:13:52;13.40;;;8.80;;
22571;SDS011;11452;53.368;14.658;2023-04-16T21:18:58;13.70;;;8.87;;
22571;SDS011;11452;53.368;14.658;2023-04-16T21:24:03;10.23;;;9.13;;
22571;SDS011;11452;53.368;14.658;2023-04-16T21:29:09;12.23;;;8.63;;
22571;SDS011;11452;53.368;14.658;2023-04-16T21:34:15;10.70;;;8.77;;
22571;SDS011;11452;53.368;14.658;2023-04-16T21:39:21;11.03;;;8.67;;
22571;SDS011;11452;53.368;14.658;2023-04-16T21:44:28;10.77;;;9.10;;
22571;SDS011;11452;53.368;14.658;2023-04-16T21:49:33;12.30;;;9.33;;
22571;SDS011;11452;53.368;14.658;2023-04-16T21:54:39;11.27;;;9.03;;
22571;SDS011;11452;53.368;14.658;2023-04-16T21:59:44;12.30;;;9.40;;
22571;SDS011;11452;53.368;14.658;2023-04-16T22:04:51;12.50;;;8.73;;
22571;SDS011;11452;53.368;14.658;2023-04-16T22:09:56;9.67;;;8.33;;
22571;SDS011;11452;53.368;14.658;2023-04-16T22:15:03;12.23;;;9.13;;
22571;SDS011;11452;53.368;14.658;2023-04-16T22:20:09;10.77;;;8.50;;
22571;SDS011;11452;53.368;14.658;2023-04-16T22:25:15;12.97;;;10.03;;
22571;SDS011;11452;53.368;14.658;2023-04-16T22:30:21;10.17;;;7.80;;
22571;SDS011;11452;53.368;14.658;2023-04-16T22:35:26;11.17;;;8.80;;
22571;SDS011;11452;53.368;14.658;2023-04-16T22:40:34;10.20;;;7.93;;
22571;SDS011;11452;53.368;14.658;2023-04-16T22:45:42;8.73;;;7.77;;
22571;SDS011;11452;53.368;14.658;2023-04-16T22:50:51;13.07;;;9.73;;
22571;SDS011;11452;53.368;14.658;2023-04-16T22:55:56;10.27;;;9.10;;
22571;SDS011;11452;53.368;14.658;2023-04-16T23:01:02;10.87;;;8.47;;
22571;SDS011;11452;53.368;14.658;2023-04-16T23:06:08;12.50;;;8.77;;
22571;SDS011;11452;53.368;14.658;2023-04-16T23:11:13;14.43;;;9.83;;
22571;SDS011;11452;53.368;14.658;2023-04-16T23:16:19;11.07;;;9.03;;
22571;SDS011;11452;53.368;14.658;2023-04-16T23:21:24;12.30;;;9.17;;
22571;SDS011;11452;53.368;14.658;2023-04-16T23:26:30;11.80;;;9.03;;
22571;SDS011;11452;53.368;14.658;2023-04-16T23:31:36;9.60;;;8.23;;
22571;SDS011;11452;53.368;14.658;2023-04-16T23:36:41;11.57;;;9.40;;
22571;SDS011;11452;53.368;14.658;2023-04-16T23:41:47;12.73;;;9.00;;
22571;SDS011;11452;53.368;14.658;2023-04-16T23:46:54;14.83;;;10.20;;
22571;SDS011;11452;53.368;14.658;2023-04-16T23:52:00;11.93;;;9.33;;
22571;SDS011;11452;53.368;14.658;2023-04-16T23:57:05;11.80;;;8.70;;
